Hovedside
METAR-TAF:

METAR-TAF

Lufthavner :

Šiauliai, Litauen

breddegrad: 55-53-38N, lengdegrad: 023-23-42E, høyde over havet: 135 m

Gjeldene værobservasjon

Denne rapporten ble laget for 17 minutter siden, klokken 05:50 UTC
Vind 8 kt fra Vest-nordvest
Temperatur 2°C
Luftfuktighet 93%
Trykk 1023 hPa
Sikt 10 km eller mer
ingen skyer under 1500 m og ingen bygeskyer

METAR: EYSA 240550Z 30008KT CAVOK 02/01 Q1023 R32R/09//95 R32L/09//95 BLU NOSIG

Tid: 08:07 (06:07 UTC)

Varsel

Denne rapporten ble laget for 1 time og 7 minutter siden, klokken 05:00 UTC
Varsel gyldig fra 24. klokken 06 UTC til 24. klokken 15 UTC
Vind 4 kt fra skiftende retning
Sikt 10 km eller mer
ingen skyer under 1500 m og ingen bygeskyer
Blir
fra 24. klokken 07 UTC til 24. klokken 09 UTC
Vind 14 kt fra Nord-nordvest
Midlertidig
fra 24. klokken 09 UTC til 24. klokken 15 UTC
Vind 24 kt fra Nord-nordvest

TAF: EYSA 240500Z 2406/2415 VRB04KT CAVOK BECMG 2407/2409 34014KT TEMPO 2409/2415 34024KT

Værobservasjoner og værvarsel for over 4000 flyplasser (METAR- og TAF-rapporter).

Tilgjengelige stasjoner er representert av de røde og gule prikkene på kartet.

Hold musepekeren over prikken for å se navnet på stasjonen.

Klikk så for å se værobservasjoner og -varsler.

For å forandre kartet kan du klikke på den grønne knappen med svart kryss for å zoome inn, på den grønne knappen med strek for å zoome ut, eller på de grønne pilene for å se tilstøtende kart.


METAR-TAF: